Accueil
METAR-TAF:

METAR-TAF

Aéroports :

Smith Field

Siloam Springs, Arkansas, États-Unis

latitude: 36-12N, longitude: 094-29W, altitude: 300 m

Observation

Le bulletin a été fait il y a 58 minutes, à 23:56 UTC
Vent 3 kt de nord-est
Température 23°C
Humidité 89%
Pression 1018 hPa
Visibilité: 16.1 km
Ciel couvert à une hauteur de 3300 ft

METAR: KSLG 212356Z AUTO 04003KT 10SM OVC033 23/21 A3005 RMK AO2 SLP167 60017 T02280211 10250 20211 55007

Heure: 19:54 (00:54 UTC)


TAF: absent

Observations et prévisions météorologiques de plus de 4000 aéroports (messages METAR et TAF).

Les stations disponibles sont représentées par des disques jaunes et rouges sur la carte.

Passer la souris dessus pour voir le nom de la station.

Cliquer dessus pour voir les observations et prévisions météorologiques.

Pour changer de carte: cliquez sur les boutons verts avec une croix noire pour zoomer, sur le bouton vert avec un tiret pour effectuer un zoom arrière, ou sur les flèches vertes pour les cartes adjacentes.


METAR-TAF: